createdAt,value
2023-03-03T00:04:48.247Z,3.60
2023-03-03T00:14:47.249Z,3.50
2023-03-03T00:24:47.024Z,3.40
2023-03-03T00:34:46.228Z,3.30
2023-03-03T00:44:45.244Z,3.10
2023-03-03T00:54:44.248Z,3.10
2023-03-03T01:04:43.457Z,3.00
2023-03-03T01:14:42.189Z,3.10
2023-03-03T01:24:41.168Z,3.20
2023-03-03T01:34:40.179Z,3.50
2023-03-03T01:44:39.224Z,3.70
2023-03-03T01:54:38.291Z,3.80
2023-03-03T02:04:37.196Z,3.60
2023-03-03T02:14:36.518Z,3.60
2023-03-03T02:24:35.285Z,3.70
2023-03-03T02:34:34.456Z,3.80
2023-03-03T02:44:33.717Z,3.60
2023-03-03T02:54:33.097Z,3.50
2023-03-03T03:04:32.615Z,3.50
2023-03-03T03:14:31.493Z,3.40
2023-03-03T03:24:32.210Z,3.50
2023-03-03T03:34:31.813Z,3.60
2023-03-03T03:44:30.628Z,3.60
2023-03-03T03:54:29.746Z,3.50
2023-03-03T04:04:28.634Z,3.50
2023-03-03T04:14:28.384Z,3.70
2023-03-03T04:24:27.453Z,3.70
2023-03-03T04:34:27.600Z,3.70
2023-03-03T04:44:27.263Z,3.40
2023-03-03T04:54:26.447Z,3.20
2023-03-03T05:04:25.516Z,3.10
2023-03-03T05:14:24.405Z,3.00
2023-03-03T05:24:23.448Z,2.90
2023-03-03T05:34:22.495Z,3.00
2023-03-03T05:44:21.546Z,3.00
2023-03-03T05:54:20.301Z,3.10
2023-03-03T06:04:19.456Z,2.90
2023-03-03T06:14:18.690Z,2.90
2023-03-03T06:24:17.518Z,3.10
2023-03-03T06:34:16.576Z,3.30
2023-03-03T06:44:15.408Z,3.20
2023-03-03T06:54:14.455Z,3.30
2023-03-03T07:04:13.544Z,3.40
2023-03-03T07:14:12.370Z,3.50
2023-03-03T07:24:11.419Z,3.70
2023-03-03T07:34:10.561Z,3.70
2023-03-03T07:44:09.807Z,4.00
2023-03-03T07:54:08.824Z,4.30
2023-03-03T08:04:07.768Z,4.80
2023-03-03T08:14:06.342Z,5.10
2023-03-03T08:24:05.578Z,5.30
2023-03-03T08:34:04.854Z,5.10
2023-03-03T08:44:03.361Z,5.30
2023-03-03T08:54:02.726Z,5.60
2023-03-03T09:04:01.482Z,5.70
2023-03-03T09:14:00.513Z,6.00
2023-03-03T09:23:59.465Z,6.20
2023-03-03T09:33:59.699Z,6.20
2023-03-03T09:44:01.737Z,6.00
2023-03-03T09:54:00.588Z,6.00
2023-03-03T10:04:00.171Z,6.20
2023-03-03T10:13:59.423Z,6.20
2023-03-03T10:23:59.421Z,6.60
2023-03-03T10:34:00.031Z,6.80
2023-03-03T10:43:59.819Z,7.10
2023-03-03T10:53:58.563Z,7.50
2023-03-03T11:03:57.877Z,7.50
2023-03-03T11:13:56.640Z,7.20
2023-03-03T11:23:55.451Z,7.60
2023-03-03T11:33:54.537Z,8.00
2023-03-03T11:43:53.496Z,8.20
2023-03-03T11:53:52.611Z,8.10
2023-03-03T12:03:51.772Z,8.20
2023-03-03T12:13:50.739Z,8.80
2023-03-03T12:23:49.609Z,9.20
2023-03-03T12:33:48.831Z,8.90
2023-03-03T12:43:47.819Z,9.30
2023-03-03T12:53:46.725Z,9.60
2023-03-03T13:03:55.310Z,9.60
2023-03-03T13:13:46.863Z,9.60
2023-03-03T13:23:48.650Z,9.50
2023-03-03T13:33:49.664Z,8.30
2023-03-03T13:43:48.814Z,8.90
2023-03-03T13:53:47.930Z,8.70
2023-03-03T14:03:46.739Z,9.10
2023-03-03T14:13:45.649Z,8.60
2023-03-03T14:23:45.102Z,8.70
2023-03-03T14:33:43.800Z,8.10
2023-03-03T14:43:42.788Z,8.50
2023-03-03T14:53:41.834Z,8.00
2023-03-03T15:03:40.881Z,8.20
2023-03-03T15:13:40.470Z,8.00
2023-03-03T15:23:39.955Z,7.80
2023-03-03T15:33:38.835Z,7.80
2023-03-03T15:43:37.890Z,7.70
2023-03-03T15:53:36.928Z,7.50
2023-03-03T16:03:36.344Z,7.20
2023-03-03T16:13:35.819Z,7.30
2023-03-03T16:23:35.083Z,7.00
2023-03-03T16:33:33.820Z,6.90
2023-03-03T16:43:32.775Z,6.80
2023-03-03T16:53:31.897Z,6.70
2023-03-03T17:03:30.846Z,6.60
2023-03-03T17:13:29.720Z,6.40
2023-03-03T17:23:28.754Z,6.30
2023-03-03T17:33:29.961Z,6.00
2023-03-03T17:43:28.904Z,5.80
2023-03-03T17:53:27.642Z,5.50
2023-03-03T18:03:28.696Z,5.20
2023-03-03T18:13:27.865Z,5.00
2023-03-03T18:23:26.807Z,4.80
2023-03-03T18:33:26.159Z,4.60
2023-03-03T18:43:24.762Z,4.50
2023-03-03T18:53:24.475Z,4.30
2023-03-03T19:03:23.938Z,4.10
2023-03-03T19:13:22.784Z,3.90
2023-03-03T19:23:21.712Z,4.00
2023-03-03T19:33:20.847Z,4.00
2023-03-03T19:43:19.711Z,4.10
2023-03-03T19:53:18.746Z,4.30
2023-03-03T20:03:17.800Z,4.50
2023-03-03T20:13:16.786Z,4.70
2023-03-03T20:23:16.454Z,4.80
2023-03-03T20:33:15.744Z,4.90
2023-03-03T20:43:14.683Z,5.20
2023-03-03T20:53:14.005Z,5.10
2023-03-03T21:03:12.800Z,5.30
2023-03-03T21:13:11.742Z,5.40
2023-03-03T21:23:11.476Z,5.40
2023-03-03T21:33:10.788Z,5.50
2023-03-03T21:43:09.804Z,5.60
2023-03-03T21:53:08.756Z,5.60
2023-03-03T22:03:07.777Z,5.60
2023-03-03T22:13:06.825Z,5.60
2023-03-03T22:23:05.923Z,5.60
2023-03-03T22:33:04.814Z,5.60
2023-03-03T22:43:05.629Z,5.60
2023-03-03T22:53:04.754Z,5.60
2023-03-03T23:03:03.898Z,5.70
2023-03-03T23:13:02.846Z,5.70
2023-03-03T23:23:01.852Z,5.80
2023-03-03T23:33:00.832Z,5.80
2023-03-03T23:42:59.785Z,5.80
2023-03-03T23:52:58.818Z,5.80
